Terminal Aerodrome Forecast
Issued by NWS Sterling, VA

Current Version | Previous Version | Graphics & Text | Print | Product List | Glossary On
Versions: 1 2 3 4 5 6 7 8 9 10 11 12 13 14 15 16 17 18 19 20 21 22 23
000
FTUS41 KLWX 161433 AAA
TAFIAD
TAF AMD
KIAD 161433Z 1615/1718 22008KT P6SM SCT250
     FM161700 24011KT P6SM SCT100
     FM162300 25006KT P6SM FEW250
     FM170500 00000KT P6SM FEW200=

USA.gov is the U.S. government's official web portal to all federal, state and local government web resources and services.